Terminal Aerodrome Forecast
Issued by NWS Dallas/Fort Worth, TX

Home | Current Version | Previous Version | Text Only | Print | Product List | Glossary On
Versions: 1 2 3 4 5 6 7 8 9 10 11 12 13 14 15 16 17 18 19 20 21 22 23 24 25 26 27 28 29 30 31 32
000
FTUS44 KFWD 060305 AAB
TAFDFW
TAF AMD
KDFW 060305Z 0603/0706 19005KT P6SM BKN025
      TEMPO 0604/0607 SCT025
     FM060700 18004KT 3SM BR BKN004
     FM060900 01005KT 2SM BR OVC002
      TEMPO 0610/0613 1/2SM FG OVC002
     FM061500 01013KT P6SM OVC008
     FM061700 01014KT P6SM OVC021
     FM070000 01009KT P6SM SCT020=

USA.gov is the U.S. government's official web portal to all federal, state and local government web resources and services.